Riverside, Ohio
Current Conditions -  °F | °C
As of 4:58 AM on Saturday 25 Oct 2014 (Local Time) from KFFO Reporting Station
Overcast Overcast  
Wind Chill: 46°   Ceiling: 3500
Heat Index: 49°   Visibility: 10mi
Dew Point: 45°   Wind: 6mph
Humidity: 87%   Direction: 200°SSW
Pressure: 29.99"   Gusts: NA
Location:  39.7649°N, 84.0863°W
Report Text: KFFO 250858Z AUTO 20005KT 10SM OVC035 09/07 A2999 RMK AO2 SLP158 T00920072 58009
Loading
Personal Weather Stations






























Interactive Weather Map
Tropical Storm Tracking
New forecast layout! Learn more

10-Day Weather Forecast

Advertisements
Track Severe Weather on mobile